Time;durP1;ratioP1;P1;durP2;ratioP2;P2;SDS_P1;SDS_P2;PMS_P1;PMS_P2;Temp;Humidity;BMP_temperature;BMP_pressure;BME280_temperature;BME280_humidity;BME280_pressure;Samples;Min_cycle;Max_cycle;Signal;HPM_P1;HPM_P2
2023/12/01 00:00:05;;;;;;;67.57;22.17;;;;;;;-0.94;100.00;100277.28;5112322;28;20379;-47
2023/12/01 00:02:33;;;;;;;61.20;22.55;;;;;;;-0.93;100.00;100277.22;5093839;28;20062;-45
2023/12/01 00:05:02;;;;;;;63.42;21.05;;;;;;;-0.94;100.00;100285.88;5111889;28;20039;-47
2023/12/01 00:07:30;;;;;;;61.50;20.15;;;;;;;-1.02;100.00;100286.06;5112324;28;20676;-45
2023/12/01 00:09:59;;;;;;;64.72;20.63;;;;;;;-1.02;100.00;100288.66;5111935;28;20515;-46
2023/12/01 00:12:28;;;;;;;60.97;22.20;;;;;;;-1.02;100.00;100285.22;5111921;28;20553;-47
2023/12/01 00:14:55;;;;;;;61.40;19.85;;;;;;;-1.09;100.00;100292.28;5112114;28;20048;-51
2023/12/01 00:17:23;;;;;;;55.58;19.83;;;;;;;-0.99;100.00;100289.47;5111961;28;20048;-46
2023/12/01 00:19:52;;;;;;;63.15;21.58;;;;;;;-0.98;100.00;100296.31;5111974;28;20563;-48
2023/12/01 00:22:20;;;;;;;69.55;21.45;;;;;;;-1.02;100.00;100300.72;5111909;28;20124;-46
2023/12/01 00:24:51;;;;;;;61.35;21.20;;;;;;;-0.98;100.00;100301.47;5111879;28;20075;-46
2023/12/01 00:27:20;;;;;;;70.15;22.48;;;;;;;-0.96;100.00;100308.28;5093526;28;20048;-46
2023/12/01 00:29:48;;;;;;;62.70;20.73;;;;;;;-0.96;100.00;100305.72;5111895;28;20054;-47
2023/12/01 00:32:19;;;;;;;67.18;21.15;;;;;;;-0.92;100.00;100304.75;5108800;28;20047;-54
2023/12/01 00:34:47;;;;;;;61.17;20.80;;;;;;;-0.92;100.00;100309.91;5109106;28;20035;-53
2023/12/01 00:37:16;;;;;;;67.50;22.60;;;;;;;-0.95;100.00;100304.84;5089967;28;20036;-52
2023/12/01 00:39:45;;;;;;;62.40;21.95;;;;;;;-0.94;100.00;100309.13;5110756;28;20089;-53
2023/12/01 00:42:13;;;;;;;70.05;22.83;;;;;;;-0.92;100.00;100312.50;5111881;28;20399;-46
2023/12/01 00:44:45;;;;;;;76.45;24.60;;;;;;;-0.91;100.00;100314.19;5111566;28;20079;-46
2023/12/01 00:47:13;;;;;;;68.10;22.27;;;;;;;-0.85;100.00;100318.34;5111739;28;20047;-50
2023/12/01 00:49:41;;;;;;;67.53;22.25;;;;;;;-0.88;100.00;100316.69;5115249;28;20108;-47
2023/12/01 00:52:09;;;;;;;65.07;21.13;;;;;;;-0.88;100.00;100328.75;5115408;28;20524;-45
2023/12/01 00:54:38;;;;;;;65.95;21.10;;;;;;;-0.97;100.00;100319.50;5115477;28;20047;-48
2023/12/01 00:57:06;;;;;;;66.65;21.17;;;;;;;-0.96;100.00;100326.38;5115339;28;20865;-50
2023/12/01 00:59:34;;;;;;;76.03;22.67;;;;;;;-0.95;100.00;100322.91;5112936;28;20060;-52
2023/12/01 01:02:04;;;;;;;71.38;22.13;;;;;;;-0.99;100.00;100329.03;5113141;28;20043;-51
2023/12/01 01:04:32;;;;;;;64.88;22.40;;;;;;;-1.03;100.00;100330.00;5097253;28;20113;-46
2023/12/01 01:07:00;;;;;;;73.70;24.42;;;;;;;-1.09;100.00;100327.56;5115506;28;20495;-49
2023/12/01 01:09:28;;;;;;;74.13;23.48;;;;;;;-1.06;100.00;100337.84;5115398;28;20124;-47
2023/12/01 01:11:57;;;;;;;78.47;24.80;;;;;;;-1.16;100.00;100333.75;5115430;28;20547;-47
2023/12/01 01:14:25;;;;;;;85.45;25.45;;;;;;;-1.14;100.00;100335.44;5115410;28;20123;-46
2023/12/01 01:16:53;;;;;;;76.03;25.13;;;;;;;-1.11;100.00;100334.50;5115265;28;20050;-46
2023/12/01 01:19:22;;;;;;;72.80;21.80;;;;;;;-1.04;100.00;100336.03;5097218;28;20163;-47
2023/12/01 01:21:50;;;;;;;72.28;21.85;;;;;;;-1.05;100.00;100331.75;5115357;28;20047;-47
2023/12/01 01:24:19;;;;;;;78.55;23.60;;;;;;;-1.17;100.00;100337.22;5112582;28;20054;-47
2023/12/01 01:26:47;;;;;;;78.65;22.23;;;;;;;-1.13;100.00;100338.84;5111582;28;20461;-46
2023/12/01 01:29:15;;;;;;;80.57;24.80;;;;;;;-1.09;100.00;100343.03;5115188;28;20043;-46
2023/12/01 01:31:43;;;;;;;79.72;21.73;;;;;;;-1.09;100.00;100345.63;5115136;28;20039;-46
2023/12/01 01:34:11;;;;;;;76.88;24.17;;;;;;;-1.10;100.00;100343.94;5114862;28;20066;-46
2023/12/01 01:36:44;;;;;;;80.05;23.73;;;;;;;-1.12;100.00;100348.28;5114884;28;20112;-47
2023/12/01 01:39:12;;;;;;;82.90;24.73;;;;;;;-1.08;100.00;100344.75;5114910;28;20510;-48
2023/12/01 01:41:44;;;;;;;88.63;23.85;;;;;;;-1.07;100.00;100344.72;5115090;28;20070;-45
2023/12/01 01:44:12;;;;;;;79.60;23.60;;;;;;;-1.04;100.00;100351.53;5114567;28;20051;-46
2023/12/01 01:46:40;;;;;;;81.20;24.85;;;;;;;-1.11;100.00;100352.56;5114638;28;20047;-46
2023/12/01 01:49:08;;;;;;;90.53;28.42;;;;;;;-1.11;100.00;100357.75;5114636;28;20039;-46
2023/12/01 01:51:37;;;;;;;90.97;26.55;;;;;;;-1.19;100.00;100357.91;5114647;28;20043;-46
2023/12/01 01:54:07;;;;;;;82.18;25.92;;;;;;;-1.14;100.00;100356.06;5114435;28;20061;-46
2023/12/01 01:56:35;;;;;;;87.40;24.80;;;;;;;-1.10;100.00;100359.44;5114377;28;20043;-46
2023/12/01 01:59:04;;;;;;;91.78;27.50;;;;;;;-1.11;100.00;100363.75;5114358;28;20088;-45
2023/12/01 02:01:32;;;;;;;76.50;24.85;;;;;;;-1.06;100.00;100356.72;5114379;28;20062;-51
2023/12/01 02:04:03;;;;;;;71.47;23.58;;;;;;;-1.02;100.00;100353.19;5114249;28;20049;-51
2023/12/01 02:06:32;;;;;;;80.97;25.60;;;;;;;-1.05;100.00;100362.72;5111200;28;20059;-53
2023/12/01 02:09:05;;;;;;;81.03;24.90;;;;;;;-1.04;100.00;100348.94;5112359;28;20044;-52
2023/12/01 02:11:35;;;;;;;81.60;24.60;;;;;;;-1.03;100.00;100359.22;5110704;28;20063;-53
2023/12/01 02:14:04;;;;;;;80.88;24.58;;;;;;;-1.02;100.00;100354.94;5110749;28;20051;-55
2023/12/01 02:16:31;;;;;;;71.88;23.20;;;;;;;-0.95;100.00;100359.06;5109089;28;20062;-47
2023/12/01 02:18:59;;;;;;;78.15;25.48;;;;;;;-0.94;100.00;100362.47;5113474;28;20127;-48
2023/12/01 02:21:29;;;;;;;69.78;24.08;;;;;;;-0.94;100.00;100357.31;5114183;28;20054;-45
2023/12/01 02:23:59;;;;;;;69.70;24.67;;;;;;;-0.91;100.00;100355.50;5112689;28;20048;-49
2023/12/01 02:26:27;;;;;;;69.05;22.45;;;;;;;-0.87;100.00;100354.53;5109517;28;20109;-46
2023/12/01 02:28:55;;;;;;;61.22;22.88;;;;;;;-0.87;100.00;100362.28;5113111;28;20442;-47
2023/12/01 02:31:23;;;;;;;64.40;23.50;;;;;;;-0.84;100.00;100358.78;5113972;28;20044;-46
2023/12/01 02:33:53;;;;;;;63.30;23.05;;;;;;;-0.83;100.00;100357.03;5112463;28;20063;-49
2023/12/01 02:36:22;;;;;;;63.08;23.10;;;;;;;-0.83;100.00;100357.03;5113896;28;20072;-47
2023/12/01 02:38:50;;;;;;;64.32;23.17;;;;;;;-0.76;100.00;100363.75;5113790;28;20040;-46
2023/12/01 02:41:19;;;;;;;60.03;22.48;;;;;;;-0.75;100.00;100362.84;5113725;28;20051;-47
2023/12/01 02:43:47;;;;;;;51.58;19.77;;;;;;;-0.75;100.00;100360.25;5113545;28;20051;-46
2023/12/01 02:46:22;;;;;;;52.60;21.00;;;;;;;-0.73;100.00;100361.09;5113734;28;20046;-45
2023/12/01 02:48:51;;;;;;;52.05;18.73;;;;;;;-0.70;100.00;100350.66;5113666;28;20502;-47
2023/12/01 02:51:19;;;;;;;53.20;19.10;;;;;;;-0.77;100.00;100356.88;5113703;28;20040;-46
2023/12/01 02:53:47;;;;;;;45.70;17.80;;;;;;;-0.76;100.00;100356.00;5112162;28;20055;-46
2023/12/01 02:56:16;;;;;;;45.30;17.55;;;;;;;-0.77;100.00;100354.31;5111132;28;20050;-47
2023/12/01 02:58:45;;;;;;;46.42;18.05;;;;;;;-0.75;100.00;100353.38;5108583;28;20059;-46
2023/12/01 03:01:14;;;;;;;47.80;17.98;;;;;;;-0.79;100.00;100356.94;5110797;28;20414;-48
2023/12/01 03:03:42;;;;;;;50.75;19.17;;;;;;;-0.74;100.00;100356.81;5111812;28;20043;-46
2023/12/01 03:06:11;;;;;;;47.28;17.75;;;;;;;-0.74;100.00;100355.06;5113060;28;20474;-49
2023/12/01 03:08:39;;;;;;;47.90;17.98;;;;;;;-0.75;100.00;100349.94;5112887;28;20050;-48
2023/12/01 03:11:07;;;;;;;46.17;19.30;;;;;;;-0.70;100.00;100354.09;5112295;28;20056;-46
2023/12/01 03:13:36;;;;;;;47.25;17.63;;;;;;;-0.64;100.00;100359.97;5113047;28;20044;-47
2023/12/01 03:16:06;;;;;;;47.50;18.65;;;;;;;-0.65;100.00;100353.97;5094862;28;20056;-53
2023/12/01 03:18:35;;;;;;;39.78;17.00;;;;;;;-0.66;100.00;100356.63;5112765;28;20058;-50
2023/12/01 03:21:11;;;;;;;44.50;18.02;;;;;;;-0.69;100.00;100360.97;5112730;28;20047;-53
2023/12/01 03:23:42;;;;;;;42.95;16.95;;;;;;;-0.68;100.00;100356.66;5112788;28;20553;-54
2023/12/01 03:26:10;;;;;;;47.00;18.73;;;;;;;-0.63;100.00;100359.09;5110349;28;20039;-51
2023/12/01 03:28:38;;;;;;;46.38;17.80;;;;;;;-0.66;100.00;100357.44;5090931;28;20063;-53
2023/12/01 03:31:08;;;;;;;40.70;16.63;;;;;;;-0.65;100.00;100363.47;5109308;28;20059;-54
2023/12/01 03:33:36;;;;;;;41.90;17.38;;;;;;;-0.62;100.00;100356.47;5091268;28;20116;-53
2023/12/01 03:36:06;;;;;;;45.00;17.38;;;;;;;-0.59;100.00;100361.56;5091186;28;20055;-52
2023/12/01 03:38:34;;;;;;;43.97;17.67;;;;;;;-0.56;100.00;100363.22;5112512;28;20044;-52
2023/12/01 03:41:05;;;;;;;44.22;17.73;;;;;;;-0.55;100.00;100376.09;5110028;28;20413;-53
2023/12/01 03:43:36;;;;;;;47.38;17.95;;;;;;;-0.52;100.00;100373.44;5108972;28;20066;-52
2023/12/01 03:46:05;;;;;;;42.33;17.05;;;;;;;-0.55;100.00;100373.50;5091406;28;20123;-53
2023/12/01 03:48:36;;;;;;;43.63;18.52;;;;;;;-0.54;100.00;100372.63;5109562;28;20047;-53
2023/12/01 03:51:04;;;;;;;41.92;16.45;;;;;;;-0.53;100.00;100378.66;5090465;28;20051;-54
2023/12/01 03:53:32;;;;;;;43.85;16.98;;;;;;;-0.54;100.00;100374.38;5109795;28;20660;-53
2023/12/01 03:56:01;;;;;;;43.03;16.33;;;;;;;-0.52;100.00;100378.59;5108326;28;20146;-51
2023/12/01 03:58:29;;;;;;;43.30;17.23;;;;;;;-0.52;100.00;100378.59;5111152;28;20052;-50
2023/12/01 04:00:57;;;;;;;42.70;16.52;;;;;;;-0.50;100.00;100375.97;5112341;28;20043;-53
2023/12/01 04:03:25;;;;;;;39.42;15.65;;;;;;;-0.47;100.00;100380.22;5111204;28;20061;-51
2023/12/01 04:05:55;;;;;;;42.75;15.45;;;;;;;-0.46;100.00;100381.91;5109133;28;20593;-53
2023/12/01 04:08:23;;;;;;;42.47;16.85;;;;;;;-0.45;100.00;100388.75;5108800;28;20039;-54
2023/12/01 04:10:52;;;;;;;45.38;17.58;;;;;;;-0.51;100.00;100390.63;5108295;28;20522;-46
2023/12/01 04:13:20;;;;;;;43.40;16.85;;;;;;;-0.45;100.00;100386.19;5111203;28;20058;-53
2023/12/01 04:15:52;;;;;;;39.03;16.25;;;;;;;-0.51;100.00;100390.63;5093163;28;20051;-54
2023/12/01 04:18:21;;;;;;;42.42;17.38;;;;;;;-0.48;100.00;100388.84;5108423;28;20542;-52
2023/12/01 04:20:50;;;;;;;38.30;15.57;;;;;;;-0.48;100.00;100394.84;5110575;28;20055;-54
2023/12/01 04:23:19;;;;;;;40.03;16.40;;;;;;;-0.48;100.00;100389.69;5111054;28;20060;-53
2023/12/01 04:25:47;;;;;;;32.15;13.95;;;;;;;-0.47;100.00;100393.13;5108002;28;20052;-52
2023/12/01 04:28:16;;;;;;;43.45;17.52;;;;;;;-0.46;100.00;100402.56;5107538;28;20040;-51
2023/12/01 04:30:45;;;;;;;47.20;17.38;;;;;;;-0.44;100.00;100395.63;5109021;28;20464;-53
2023/12/01 04:33:13;;;;;;;42.72;17.50;;;;;;;-0.41;100.00;100401.59;5108103;28;20067;-53
2023/12/01 04:35:42;;;;;;;44.80;18.10;;;;;;;-0.41;100.00;100405.88;5108426;28;20055;-51
2023/12/01 04:38:10;;;;;;;41.10;17.75;;;;;;;-0.38;100.00;100398.06;5109163;28;20052;-53
2023/12/01 04:40:39;;;;;;;42.35;17.55;;;;;;;-0.38;100.00;100400.66;5108440;28;20122;-53
2023/12/01 04:43:07;;;;;;;46.05;18.15;;;;;;;-0.37;100.00;100408.38;5110720;28;20043;-54
2023/12/01 04:45:36;;;;;;;44.60;18.33;;;;;;;-0.34;100.00;100410.03;5108856;28;20059;-53
2023/12/01 04:48:07;;;;;;;44.83;17.05;;;;;;;-0.27;100.00;100413.25;5108515;28;20048;-46
2023/12/01 04:50:46;;;;;;;44.95;18.83;;;;;;;-0.31;100.00;100414.22;5090329;28;20048;-48
2023/12/01 04:53:14;;;;;;;49.55;19.05;;;;;;;-0.24;100.00;100402.84;5111865;28;20075;-50
2023/12/01 04:55:46;;;;;;;45.60;19.00;;;;;;;-0.29;100.00;100409.88;5109688;28;20039;-46
2023/12/01 04:58:15;;;;;;;50.70;20.48;;;;;;;-0.32;100.00;100410.81;5108146;28;20059;-46
2023/12/01 05:00:43;;;;;;;46.22;18.45;;;;;;;-0.29;100.00;100421.06;5111201;28;20097;-48
2023/12/01 05:03:11;;;;;;;48.00;19.63;;;;;;;-0.28;100.00;100417.59;5111541;28;20039;-47
2023/12/01 05:05:42;;;;;;;45.73;17.73;;;;;;;-0.30;100.00;100419.38;5111503;28;20051;-49
2023/12/01 05:08:11;;;;;;;46.47;18.13;;;;;;;-0.24;100.00;100420.94;5111549;28;20061;-48
2023/12/01 05:10:44;;;;;;;47.25;18.70;;;;;;;-0.32;100.00;100423.72;5111319;28;20052;-47
2023/12/01 05:13:15;;;;;;;47.33;20.98;;;;;;;-0.29;100.00;100428.81;5111615;28;20053;-50
2023/12/01 05:15:44;;;;;;;48.05;19.60;;;;;;;-0.28;100.00;100427.94;5093305;28;20418;-47
2023/12/01 05:18:12;;;;;;;47.10;19.65;;;;;;;-0.29;100.00;100431.41;5111574;28;20039;-47
2023/12/01 05:20:43;;;;;;;51.38;19.17;;;;;;;-0.28;100.00;100435.69;5111691;28;20125;-54
2023/12/01 05:23:16;;;;;;;47.90;18.60;;;;;;;-0.25;100.00;100432.16;5111710;28;20130;-53
2023/12/01 05:25:46;;;;;;;47.08;20.10;;;;;;;-0.24;100.00;100439.88;5107767;28;20040;-53
2023/12/01 05:28:16;;;;;;;44.38;18.77;;;;;;;-0.23;100.00;100441.59;5108007;28;20043;-53
2023/12/01 05:30:46;;;;;;;51.15;19.85;;;;;;;-0.21;100.00;100446.72;5110826;28;20044;-54
2023/12/01 05:33:15;;;;;;;64.18;21.67;;;;;;;-0.24;100.00;100446.81;5107772;28;20139;-53
2023/12/01 05:35:45;;;;;;;48.15;19.65;;;;;;;-0.25;100.00;100438.19;5113138;28;20528;-54
2023/12/01 05:38:16;;;;;;;51.40;21.42;;;;;;;-0.21;100.00;100442.38;5112140;28;20042;-54
2023/12/01 05:40:45;;;;;;;46.35;21.92;;;;;;;-0.22;100.00;100453.63;5111006;28;20051;-53
2023/12/01 05:43:16;;;;;;;52.85;20.05;;;;;;;-0.22;100.00;100445.88;5115064;28;20126;-54
2023/12/01 05:45:46;;;;;;;48.75;19.30;;;;;;;-0.24;100.00;100455.38;5114838;28;20055;-53
2023/12/01 05:48:15;;;;;;;48.72;20.02;;;;;;;-0.25;100.00;100458.03;5094465;28;20047;-53
2023/12/01 05:50:43;;;;;;;52.22;20.52;;;;;;;-0.22;100.00;100463.09;5111544;28;20494;-54
2023/12/01 05:53:13;;;;;;;53.30;20.95;;;;;;;-0.23;100.00;100462.25;5111500;28;20463;-53
2023/12/01 05:55:42;;;;;;;53.00;20.38;;;;;;;-0.20;100.00;100466.50;5110872;28;20081;-54
2023/12/01 05:58:13;;;;;;;49.33;19.73;;;;;;;-0.24;100.00;100472.66;5111081;28;20043;-53
2023/12/01 06:00:41;;;;;;;55.85;20.67;;;;;;;-0.29;100.00;100470.16;5111569;28;20126;-51
2023/12/01 06:03:12;;;;;;;50.28;19.95;;;;;;;-0.13;100.00;100483.53;5113311;28;20073;-51
2023/12/01 06:05:41;;;;;;;47.65;19.17;;;;;;;-0.21;100.00;100478.56;5114403;28;20070;-52
2023/12/01 06:08:09;;;;;;;46.33;18.52;;;;;;;-0.26;100.00;100477.00;5114328;28;20047;-54
2023/12/01 06:10:41;;;;;;;41.17;16.95;;;;;;;-0.31;100.00;100482.28;5111651;28;20606;-50
2023/12/01 06:13:09;;;;;;;38.25;14.55;;;;;;;-0.31;100.00;100481.44;5110850;28;20526;-52
2023/12/01 06:15:38;;;;;;;37.92;14.82;;;;;;;-0.36;100.00;100489.31;5111487;28;20043;-52
2023/12/01 06:18:06;;;;;;;33.45;13.70;;;;;;;-0.37;100.00;100496.22;5110713;28;20444;-52
2023/12/01 06:20:37;;;;;;;33.63;13.45;;;;;;;-0.38;100.00;100498.84;5110811;28;20040;-54
2023/12/01 06:23:09;;;;;;;31.10;13.10;;;;;;;-0.38;100.00;100497.09;5112145;28;20063;-51
2023/12/01 06:25:41;;;;;;;31.27;11.88;;;;;;;-0.47;100.00;100505.09;5093367;28;20374;-53
2023/12/01 06:28:10;;;;;;;30.98;12.30;;;;;;;-0.49;100.00;100500.84;5110146;28;20040;-54
2023/12/01 06:30:41;;;;;;;28.02;11.38;;;;;;;-0.48;100.00;100492.19;5113403;28;20751;-52
2023/12/01 06:33:09;;;;;;;26.67;11.15;;;;;;;-0.57;100.00;100504.47;5113860;28;20047;-50
2023/12/01 06:35:39;;;;;;;26.30;10.57;;;;;;;-0.49;100.00;100503.41;5113908;28;20486;-50
2023/12/01 06:38:07;;;;;;;24.65;11.55;;;;;;;-0.53;100.00;100511.25;5113854;28;20121;-53
2023/12/01 06:40:39;;;;;;;29.58;12.90;;;;;;;-0.55;100.00;100507.84;5113741;28;20143;-53
2023/12/01 06:43:10;;;;;;;29.85;11.82;;;;;;;-0.52;100.00;100515.53;5110286;28;20056;-50
2023/12/01 06:45:41;;;;;;;27.23;11.88;;;;;;;-0.52;100.00;100522.41;5109919;28;20039;-53
2023/12/01 06:48:11;;;;;;;31.83;11.85;;;;;;;-0.58;100.00;100528.59;5109775;28;20047;-52
2023/12/01 06:50:43;;;;;;;30.48;12.20;;;;;;;-0.54;100.00;100529.38;5110171;28;20097;-52
2023/12/01 06:53:12;;;;;;;26.75;10.82;;;;;;;-0.46;100.00;100540.38;5112717;28;20051;-53
2023/12/01 06:55:41;;;;;;;31.92;12.55;;;;;;;-0.47;100.00;100536.09;5113899;28;20044;-52
2023/12/01 06:58:09;;;;;;;28.48;11.90;;;;;;;-0.47;100.00;100535.25;5113215;28;20044;-54
2023/12/01 07:00:39;;;;;;;28.88;11.60;;;;;;;-0.49;100.00;100542.16;5112210;28;20039;-54
2023/12/01 07:03:08;;;;;;;24.45;9.55;;;;;;;-0.49;100.00;100552.50;5109398;28;20498;-54
2023/12/01 07:05:39;;;;;;;25.85;10.13;;;;;;;-0.60;100.00;100547.59;5111853;28;20568;-52
2023/12/01 07:08:12;;;;;;;28.17;10.43;;;;;;;-0.62;100.00;100545.06;5112963;28;20522;-51
2023/12/01 07:10:42;;;;;;;25.67;10.68;;;;;;;-0.64;100.00;100549.41;5103057;28;20120;-53
2023/12/01 07:13:10;;;;;;;27.40;10.40;;;;;;;-0.77;100.00;100556.59;5113226;28;20058;-55
2023/12/01 07:15:39;;;;;;;27.42;10.23;;;;;;;-0.69;100.00;100559.00;5113240;28;20108;-54
2023/12/01 07:18:09;;;;;;;25.80;11.18;;;;;;;-0.70;100.00;100565.88;5112886;28;20410;-54
2023/12/01 07:20:40;;;;;;;29.17;10.15;;;;;;;-0.68;100.00;100565.88;5111957;28;20036;-54
2023/12/01 07:23:09;;;;;;;28.02;11.23;;;;;;;-0.70;100.00;100565.03;5109470;28;20074;-54
2023/12/01 07:25:37;;;;;;;28.67;11.73;;;;;;;-0.76;100.00;100575.53;5111311;28;20051;-53
2023/12/01 07:28:08;;;;;;;28.33;11.07;;;;;;;-0.76;100.00;100576.38;5112714;28;20055;-53
2023/12/01 07:30:40;;;;;;;27.35;10.77;;;;;;;-0.78;100.00;100575.53;5112766;28;20108;-54
2023/12/01 07:33:09;;;;;;;27.88;11.32;;;;;;;-0.74;100.00;100581.50;5112811;28;20069;-53
2023/12/01 07:35:37;;;;;;;28.38;11.98;;;;;;;-0.77;100.00;100581.56;5112845;28;20418;-53
2023/12/01 07:38:05;;;;;;;26.55;11.35;;;;;;;-0.78;100.00;100587.63;5112913;28;20134;-54
2023/12/01 07:40:35;;;;;;;30.00;12.30;;;;;;;-0.80;100.00;100584.22;5110600;28;20058;-52
2023/12/01 07:43:03;;;;;;;25.50;10.85;;;;;;;-0.86;100.00;100588.66;5109486;28;20051;-54
2023/12/01 07:45:34;;;;;;;25.30;11.30;;;;;;;-0.85;100.00;100581.72;5112340;28;20035;-53
2023/12/01 07:48:02;;;;;;;24.73;10.63;;;;;;;-0.89;100.00;100585.25;5112270;28;20134;-54
2023/12/01 07:50:31;;;;;;;27.63;11.73;;;;;;;-0.92;100.00;100586.19;5109352;28;20104;-51
2023/12/01 07:52:59;;;;;;;26.30;11.55;;;;;;;-0.87;100.00;100593.84;5109688;28;20059;-54
2023/12/01 07:55:27;;;;;;;26.77;11.32;;;;;;;-0.87;100.00;100592.09;5107360;28;20039;-54
2023/12/01 07:57:57;;;;;;;28.20;12.60;;;;;;;-0.91;100.00;100595.63;5111186;27;20050;-51
2023/12/01 08:00:25;;;;;;;23.27;10.98;;;;;;;-0.91;100.00;100595.63;5108152;28;20149;-51
2023/12/01 08:02:54;;;;;;;23.48;10.10;;;;;;;-0.93;100.00;100604.28;5109917;28;20036;-51
2023/12/01 08:05:23;;;;;;;25.80;9.98;;;;;;;-0.90;100.00;100597.34;5111056;28;20414;-55
2023/12/01 08:07:54;;;;;;;27.95;10.32;;;;;;;-1.06;100.00;100593.38;5110681;28;20043;-52
2023/12/01 08:10:27;;;;;;;;;;;;;;;-1.12;100.00;100596.91;5106975;28;20043;-53
2023/12/01 08:12:59;;;;;;;24.27;9.77;;;;;;;-1.10;100.00;100607.25;5109039;28;20394;-53
2023/12/01 08:15:29;;;;;;;24.63;10.63;;;;;;;-1.11;100.00;100606.38;5108866;28;20055;-51
2023/12/01 08:17:58;;;;;;;27.52;10.98;;;;;;;-1.09;100.00;100606.34;5112138;28;20489;-53
2023/12/01 08:20:28;;;;;;;23.58;9.82;;;;;;;-1.14;100.00;100608.19;5108041;28;20051;-53
2023/12/01 08:22:57;;;;;;;24.02;10.57;;;;;;;-1.17;100.00;100605.63;5108847;28;20040;-53
2023/12/01 08:25:27;;;;;;;26.02;11.20;;;;;;;-1.24;100.00;100600.63;5108093;28;20048;-54
2023/12/01 08:27:55;;;;;;;26.73;10.90;;;;;;;-1.17;100.00;100603.06;5108474;28;20051;-52
2023/12/01 08:30:25;;;;;;;25.38;10.13;;;;;;;-1.11;100.00;100605.53;5108834;28;21099;-53
2023/12/01 08:32:55;;;;;;;27.13;10.02;;;;;;;-1.17;100.00;100610.81;5109448;28;20052;-54
2023/12/01 08:35:24;;;;;;;24.38;10.38;;;;;;;-1.16;100.00;100603.03;5110795;28;20078;-55
2023/12/01 08:37:53;;;;;;;22.00;9.30;;;;;;;-1.11;100.00;100605.53;5109091;28;20124;-48
2023/12/01 08:40:22;;;;;;;25.25;10.20;;;;;;;-1.10;100.00;100607.25;5109558;28;20520;-48
2023/12/01 08:42:53;;;;;;;27.90;11.40;;;;;;;-1.11;100.00;100606.38;5110268;28;20054;-51
2023/12/01 08:45:22;;;;;;;25.80;10.95;;;;;;;-1.10;100.00;100614.97;5111714;28;20047;-50
2023/12/01 08:47:52;;;;;;;24.95;10.50;;;;;;;-1.06;100.00;100619.19;5111859;28;20493;-48
2023/12/01 08:50:22;;;;;;;29.17;12.55;;;;;;;-1.10;100.00;100622.72;5111870;28;20079;-47
2023/12/01 08:52:53;;;;;;;28.60;11.13;;;;;;;-1.05;100.00;100628.63;5111726;28;20046;-54
2023/12/01 08:55:21;;;;;;;28.65;11.30;;;;;;;-1.03;100.00;100621.72;5110438;28;20555;-53
2023/12/01 08:57:50;;;;;;;26.00;10.57;;;;;;;-0.97;100.00;100623.31;5111723;28;20040;-53
2023/12/01 09:00:21;;;;;;;23.45;10.43;;;;;;;-1.00;100.00;100623.38;5109351;28;20058;-53
2023/12/01 09:02:52;;;;;;;25.45;10.38;;;;;;;-1.00;100.00;100623.38;5108932;28;20432;-54
2023/12/01 09:05:21;;;;;;;25.90;10.40;;;;;;;-0.99;100.00;100619.94;5107535;28;20063;-55
2023/12/01 09:07:49;;;;;;;27.20;11.10;;;;;;;-0.95;100.00;100627.56;5110434;28;20052;-48
2023/12/01 09:10:19;;;;;;;23.73;9.45;;;;;;;-0.94;100.00;100628.41;5114760;28;20083;-52
2023/12/01 09:12:49;;;;;;;24.98;10.07;;;;;;;-0.94;100.00;100631.84;5115652;28;20069;-54
2023/12/01 09:15:18;;;;;;;24.50;9.77;;;;;;;-1.05;100.00;100626.03;5115576;28;20047;-52
2023/12/01 09:17:46;;;;;;;21.27;8.35;;;;;;;-1.04;100.00;100622.59;5115704;28;20413;-53
2023/12/01 09:20:16;;;;;;;22.20;9.25;;;;;;;-0.99;100.00;100630.25;5115396;28;20413;-50
2023/12/01 09:22:45;;;;;;;22.10;9.90;;;;;;;-0.97;100.00;100636.22;5113652;28;20043;-50
2023/12/01 09:25:14;;;;;;;23.15;9.45;;;;;;;-1.06;100.00;100634.69;5111551;28;20048;-53
2023/12/01 09:27:42;;;;;;;25.50;10.50;;;;;;;-1.01;100.00;100643.16;5111832;28;20074;-50
2023/12/01 09:30:15;;;;;;;24.25;9.25;;;;;;;-0.90;100.00;100635.19;5093975;28;20052;-53
2023/12/01 09:32:45;;;;;;;23.73;9.82;;;;;;;-0.86;100.00;100640.28;5113576;28;20044;-54
2023/12/01 09:35:15;;;;;;;24.00;9.18;;;;;;;-0.81;100.00;100644.50;5111536;28;20040;-52
2023/12/01 09:38:05;;;;;;;21.98;9.15;;;;;;;-0.83;100.00;100646.25;5111884;28;20047;-53
2023/12/01 09:40:37;;;;;;;24.13;9.45;;;;;;;-0.77;100.00;100646.97;5111475;28;20043;-52
2023/12/01 09:43:07;;;;;;;24.37;9.70;;;;;;;-0.73;100.00;100652.94;5114699;28;20513;-52
2023/12/01 09:45:36;;;;;;;25.08;9.82;;;;;;;-0.84;100.00;100665.25;5114673;28;20082;-47
2023/12/01 09:48:08;;;;;;;21.13;9.23;;;;;;;-0.95;100.00;100662.88;5114461;28;20047;-45
2023/12/01 09:50:37;;;;;;;26.55;11.13;;;;;;;-0.95;100.00;100671.47;5114943;28;20047;-46
2023/12/01 09:53:07;;;;;;;21.88;8.98;;;;;;;-0.95;100.00;100668.03;5114909;28;20043;-46
2023/12/01 09:55:35;;;;;;;20.55;7.93;;;;;;;-0.93;100.00;100666.25;5114897;28;20056;-47
2023/12/01 09:58:04;;;;;;;19.75;8.07;;;;;;;-0.94;100.00;100660.25;5114914;28;20036;-46
2023/12/01 10:00:32;;;;;;;20.98;8.38;;;;;;;-0.93;100.00;100661.94;5115045;28;20414;-52
2023/12/01 10:03:01;;;;;;;21.45;9.07;;;;;;;-0.88;100.00;100670.44;5096238;28;20425;-50
2023/12/01 10:05:32;;;;;;;27.35;9.75;;;;;;;-0.81;100.00;100670.34;5114429;28;20044;-50
2023/12/01 10:08:01;;;;;;;21.95;8.65;;;;;;;-0.80;100.00;100677.22;5096215;28;20055;-51
2023/12/01 10:10:30;;;;;;;23.13;9.65;;;;;;;-0.79;100.00;100686.63;5111983;28;20468;-51
2023/12/01 10:13:04;;;;;;;23.42;9.32;;;;;;;-0.77;100.00;100682.31;5093709;28;20050;-50
2023/12/01 10:15:37;;;;;;;25.85;10.38;;;;;;;-0.74;100.00;100683.06;5111245;28;20051;-51
2023/12/01 10:18:09;;;;;;;24.95;9.95;;;;;;;-0.65;100.00;100683.78;5111034;28;20043;-54
2023/12/01 10:20:56;;;;;;;26.20;9.75;;;;;;;-0.73;100.00;100676.19;5109627;28;20564;-51
2023/12/01 10:23:24;;;;;;;30.25;11.48;;;;;;;-0.81;100.00;100673.75;5093987;28;20382;-52
2023/12/01 10:25:54;;;;;;;28.20;11.18;;;;;;;-0.76;100.00;100674.50;5114060;28;20093;-51
2023/12/01 10:28:38;;;;;;;26.30;10.52;;;;;;;-0.69;100.00;100670.06;5110150;28;20128;-50
2023/12/01 10:31:06;;;;;;;28.08;11.18;;;;;;;-0.71;100.00;100671.81;5111705;28;20410;-52
2023/12/01 10:33:36;;;;;;;25.52;10.68;;;;;;;-0.65;100.00;100676.03;5114223;28;20039;-50
2023/12/01 10:36:07;;;;;;;28.25;11.20;;;;;;;-0.68;100.00;100677.78;5114087;28;20532;-50
2023/12/01 10:38:37;;;;;;;28.25;10.88;;;;;;;-0.65;100.00;100682.03;5113865;28;20562;-50
2023/12/01 10:41:09;;;;;;;25.70;9.77;;;;;;;-0.57;100.00;100680.16;5112778;28;20096;-53
2023/12/01 10:43:43;;;;;;;25.83;10.63;;;;;;;-0.56;100.00;100674.09;5110418;28;20035;-52
2023/12/01 10:46:14;;;;;;;26.98;11.25;;;;;;;-0.55;100.00;100672.34;5110445;28;20055;-53
2023/12/01 10:48:43;;;;;;;26.27;11.02;;;;;;;-0.55;100.00;100674.94;5110811;28;20040;-54
2023/12/01 10:51:14;;;;;;;27.02;10.75;;;;;;;-0.49;100.00;100663.63;5091664;28;20406;-55
2023/12/01 10:53:44;;;;;;;25.42;10.13;;;;;;;-0.42;100.00;100672.94;5110516;28;20134;-50
2023/12/01 10:56:20;;;;;;;25.75;10.50;;;;;;;-0.45;100.00;100673.88;5109252;28;20047;-52
2023/12/01 10:58:53;;;;;;;24.85;9.98;;;;;;;-0.43;100.00;100671.25;5110168;28;20054;-52
2023/12/01 11:01:22;;;;;;;;;;;;;;;-0.43;100.00;100672.09;5110590;28;20130;-48
2023/12/01 11:03:53;;;;;;;23.45;9.50;;;;;;;-0.50;100.00;100657.59;5110504;28;19973;-52
2023/12/01 11:06:33;;;;;;;28.63;11.02;;;;;;;-0.57;100.00;100659.47;5110319;28;20059;-51
2023/12/01 11:09:14;;;;;;;23.42;9.13;;;;;;;-0.56;100.00;100661.19;5113440;28;20059;-50
2023/12/01 11:11:55;;;;;;;24.30;10.07;;;;;;;-0.49;100.00;100661.03;5110994;28;20051;-50